Pagina principale
METAR-TAF:

METAR-TAF

Aeroporti :

Foz do Iguaçu, Paraná, Brasile

latitudine: 25-31S, longitudine: 054-35W, altezza: 180 m

Osservazione

Il bollettino è stato emesso 18 minuti fa, alle 15:00 UTC
Vento 9 kt da nord/nord-ovest
Temperature 24°C
Umidità 74%
Pressione 1016 hPa
Visibilità 10 km o più
Nubi sparse ad un'altezza di 1500 ft
Cielo coperto ad un'altezza di 2500 ft

METAR: SBFI 201500Z 34009KT 9999 SCT015 OVC025 24/19 Q1016

Ora: 13:18 (15:18 UTC)

Previsione

Il bollettino è stato emesso 8 ore e 18 minuti fa, alle 07:00 UTC
Previsione valida dal 20 alle 12 UTC al 21 alle 12 UTC
Vento 5 kt da ovest/sud-ovest
Visibilità 10 km o più
Nuvoloso ad un'altezza di 3000 ft
Evoluzione graduale
dal 20 alle 12 UTC al 20 alle 14 UTC
Vento 5 kt da est/sud-est
Nubi sparse ad un'altezza di 3000 ft

TAF: SBFI 200700Z 2012/2112 24005KT 9999 BKN030 TX28/2017Z TN20/2108Z BECMG 2012/2014 12005KT SCT030 RMK PEL

Osservazioni e previsioni meteorologiche di più di 4000 aeroporti (messaggi METAR e TAF).

Le stazioni disponibili sono rappresentate dai dischi gialli e rossi sulla carta.

Puntare il mouse per vedere il nome della stazione.

Clicca sopra per visualizzare le osservazioni e previsioni meteorologiche.

Per cambiare la mappa : fare clic sui pulsanti verdi con una croce nera per ingrandire, il pulsante verde con un trattino per diminuire, o sulla freccia verde per le mappe adiacenti.


METAR-TAF: